Portada
METAR-TAF:

METAR-TAF

Aeropuertos :

Aeropuerto de Gerona

Gerona, España

latitud: 41-54N, longitud: 002-46E, altitud: 143 m

Observación

El informe se hizo hace 27 minutos, a las 15:30 UTC
Viento 9 kt del sur
Temperatura 15°C
Humedad 51%
Presión 1028 hPa
Visibilidad 10 km o más
sin nubes por debajo de 1500 m y sin presencia de cumulonimbus.

METAR: LEGE 161530Z 18009KT CAVOK 15/05 Q1028

Hora: 16:57 (15:57 UTC)

Pronóstico

El informe se hizo hace 4 horas y 57 minutos, a las 11:00 UTC
Pronóstico válido del 16 a las 12 UTC al 17 a las 12 UTC
Viento 7 kt del sur
Visibilidad 10 km o más
Escasas nubes a una altura de 2000 ft
Evolucionando progresivamente
del 16 a las 18 UTC al 16 a las 20 UTC
Viento 3 kt con dirección variable
Temporalmente
del 16 a las 22 UTC al 17 a las 08 UTC
Visibilidad: 0400 m
a una altura de 200 ft
niebla

TAF: LEGE 161100Z 1612/1712 18007KT 9999 FEW020 TX21/1613Z TN00/1707Z BECMG 1618/1620 VRB03KT TEMPO 1622/1708 0400 FG VV002

Observaciones y pronósticos meteorológicos de más de 4000 aeropuertos (mensajes METAR y TAF).

Los puntos amarillos y rojos representan las estaciones disponibles.

Ponga el ratón en el punto deseado para ver el nombre de la estación.

Haga clic para ver las observaciones y los pronósticos meteorológicos.

Para cambiar el mapa : haga clic en los botones verdes con una cruz de color negro para hacer un zoom, en el botón verde con un guión para alejar o en las flechas verdes para mapas adyacentes.


METAR-TAF: